Terminal Aerodrome Forecast
Issued by NWS Cleveland, OH

Home | Current Version | Previous Version | Text Only | Print | Product List | Glossary Off
Versions: 1 2 3 4 5 6 7 8 9 10 11 12 13 14 15 16 17 18 19 20 21 22 23 24 25 26 27

648
FTUS41 KCLE 041730
TAFCLE
TAF
KCLE 041730Z 0418/0524 15007KT P6SM BKN120 OVC200
     FM042100 12008KT P6SM SCT045 OVC120
      TEMPO 0423/0424 OVC045
     FM050000 12008KT P6SM VCSH SCT025 OVC045
      TEMPO 0500/0502 5SM -RA OVC025
     FM050200 15010KT 6SM -RA BR OVC025
      TEMPO 0502/0506 4SM -RASN BR OVC012
     FM050600 22012KT P6SM -DZ OVC015
     FM051500 27010KT P6SM OVC025
     FM052200 25006KT P6SM SCT025 OVC080=

USA.gov is the U.S. government's official web portal to all federal, state and local government web resources and services.